San Diego, CA

04:54 PDT le 26 août 2016 (GMT -0700)
Columbia District | | Change Station

Alt. 23 ft 32.72 °N, 117.17 °W | Updated 7 seconds ago

Mostly Cloudy
Nuageux
67.5 ° F
Paraît 67.5 ° F
N
4.0
Vent Variable Vent de SSO
Gusts 4.9 mph

Aujourd'hui
Haut(e) -- | Bas -- ° F
--% Risque de précip.
Hier
Haut(e) -- | Bas -- ° F
Precip. -- pouce
Pression 29.94 pouce
Visibilité 10.0 Miles terrestres
Nuages Nuages épars 1600 ft
Nuageux 2000 ft
Point de rosée 55 ° F
Humidité 65%
Précipitations 0.00 pouce
Profondeur de la couche neigeuse Non disponible.
6:19 AM 7:20 PM
Lune descendante, 35% visible
METAR KSAN 261151Z 18003KT 10SM SCT016 BKN020 19/15 A2993 RMK AO2 SLP136 T01890150 10194 20189 56002
Pression 29.94 pouce
Visibilité 10.0 Miles terrestres
Nuages Nuages épars 1600 ft
Nuageux 2000 ft
Point de rosée 55 ° F
Humidité 65%
Précipitations 0.00 pouce
Profondeur de la couche neigeuse Non disponible.
6:19 AM 7:20 PM
Lune descendante, 35% visible
METAR KSAN 261151Z 18003KT 10SM SCT016 BKN020 19/15 A2993 RMK AO2 SLP136 T01890150 10194 20189 56002

10-Day Weather Forecast

Almanac

Astronomie

Aug. 26, 2016 Lever Coucher
Temps réel
Crépuscule civil
Crépuscule nautique
Crépuscule astronomique
Lune
Durée de lumière visible
Longueur du jour
Tomorrow will be .
, % of the Moon is Illuminated

Extrêmes aujourd'hui

State Highs State Lows

Community

WunderPhotos

Upload Photos

1,935,071 Photos téléchargées !

WunderBlog® & News

Nearby

Qualité de l'air

  Qualité de l'air Indice de la qualité de l'air Polluant
Not available.

Épaisseur de neige

Station Depth Altitude

Activité sismique

Ville Distance Mag. Time & Date
Minimum magnitude displayed is 2.5.

Températures des eaux côtières

Lieu Température

Stations

Stations météo à proximité

Emplacement de la station Température Refroidissement éolien Point de rosée Humidité Vent Precip. Alt. Mise à jour Type
                   

Watches & Warnings

There are currently no watches in effect.